バンギ の空港の天気 - METARとTAF

バンギ・ムポコ国際空港 ( FEFF / BGF ) - 中央アフリカ バンギ
飛行場実況気象(Metar)
観測時間10/22 11:00 WAT (10/22 10:00 UTC)
風向・風速南 2m/s
視程10km以上
天気現象
全天の4割程度の雲 雲底高度 610m
気温28℃
湿度70%
気圧1012hPa
METARFEFF 221000Z 18004KT 9999 SCT020 28/22 Q1012 NOSIG
過去の天気等 Google飛行場航空写真 Wunderground天気予報

過去48時間のMETAR

飛行場予報(TAF)
発表時間: 10/22 12:00 WAT (10/22 11:00 UTC)
予報対象時間: 22日13時 WAT ~ 23日19時 WAT
風向・風速南 3m/s
視程10km以上
全天の8割程度の雲 雲底高度 700m
少しの積乱雲 雲底高度 1220m
22日14時 WAT ~ 22日19時 WAT に 確率 30% で一時的に
視程4000m
天気現象雷雨
TAF FEFF 221100Z 2212/2318 19005KT 9999 BKN023 FEW040CB
PROB30 TEMPO 2213/2218 4000 TSRA